createdAt,value
2023-04-09T00:02:06.606Z,60.63
2023-04-09T00:04:33.697Z,60.99
2023-04-09T00:07:01.069Z,61.19
2023-04-09T00:09:28.142Z,61.25
2023-04-09T00:11:56.394Z,60.99
2023-04-09T00:14:23.472Z,60.96
2023-04-09T00:16:51.042Z,60.90
2023-04-09T00:19:18.118Z,60.77
2023-04-09T00:21:45.273Z,60.85
2023-04-09T00:24:12.717Z,60.91
2023-04-09T00:26:40.032Z,61.00
2023-04-09T00:29:07.122Z,60.63
2023-04-09T00:31:34.311Z,60.45
2023-04-09T00:34:01.619Z,60.66
2023-04-09T00:36:28.777Z,60.90
2023-04-09T00:38:56.139Z,61.01
2023-04-09T00:41:23.251Z,60.82
2023-04-09T00:43:50.465Z,60.90
2023-04-09T00:46:18.583Z,61.04
2023-04-09T00:48:45.823Z,61.08
2023-04-09T00:51:12.924Z,61.67
2023-04-09T00:53:40.803Z,61.57
2023-04-09T00:56:08.348Z,61.34
2023-04-09T00:58:35.882Z,60.74
2023-04-09T01:01:03.463Z,60.83
2023-04-09T01:03:30.799Z,60.85
2023-04-09T01:06:18.255Z,61.23
2023-04-09T01:09:02.351Z,60.91
2023-04-09T01:11:47.214Z,61.02
2023-04-09T01:14:20.476Z,60.98
2023-04-09T01:17:05.289Z,60.67
2023-04-09T01:19:46.366Z,60.84
2023-04-09T01:22:57.976Z,60.25
2023-04-09T01:26:11.295Z,60.35
2023-04-09T01:28:51.900Z,60.58
2023-04-09T01:31:20.932Z,60.04
2023-04-09T01:33:48.211Z,59.62
2023-04-09T01:36:15.771Z,59.65
2023-04-09T01:38:45.477Z,59.63
2023-04-09T01:41:18.713Z,59.54
2023-04-09T01:43:46.637Z,59.23
2023-04-09T01:46:14.264Z,59.61
2023-04-09T01:48:42.339Z,59.57
2023-04-09T01:51:09.851Z,59.67
2023-04-09T01:53:36.905Z,59.67
2023-04-09T01:56:04.391Z,59.38
2023-04-09T01:58:34.185Z,59.48
2023-04-09T02:01:14.660Z,60.02
2023-04-09T02:03:48.019Z,60.52
2023-04-09T02:06:42.884Z,60.55
2023-04-09T02:09:10.552Z,60.45
2023-04-09T02:11:41.063Z,60.22
2023-04-09T02:14:11.287Z,60.42
2023-04-09T02:16:40.294Z,60.52
2023-04-09T02:19:07.428Z,60.84
2023-04-09T02:21:34.802Z,60.67
2023-04-09T02:24:01.919Z,60.43
2023-04-09T02:26:29.016Z,60.16
2023-04-09T02:28:56.122Z,59.97
2023-04-09T02:31:23.271Z,60.26
2023-04-09T02:33:51.031Z,60.49
2023-04-09T02:36:18.129Z,60.64
2023-04-09T02:38:45.614Z,60.88
2023-04-09T02:41:12.820Z,60.85
2023-04-09T02:43:39.930Z,60.94
2023-04-09T02:46:07.827Z,60.47
2023-04-09T02:48:35.787Z,60.63
2023-04-09T02:51:06.386Z,60.63
2023-04-09T02:53:33.671Z,60.58
2023-04-09T02:56:00.798Z,60.67
2023-04-09T02:58:27.905Z,60.63
2023-04-09T03:00:55.014Z,60.50
2023-04-09T03:03:22.283Z,60.23
2023-04-09T03:05:49.535Z,60.40
2023-04-09T03:08:16.719Z,60.30
2023-04-09T03:10:43.856Z,60.41
2023-04-09T03:13:11.036Z,60.64
2023-04-09T03:15:38.116Z,60.38
2023-04-09T03:18:05.262Z,60.56
2023-04-09T03:20:32.400Z,60.46
2023-04-09T03:22:59.480Z,60.09
2023-04-09T03:25:34.862Z,60.23
2023-04-09T03:28:10.736Z,60.31
2023-04-09T03:30:51.373Z,59.81
2023-04-09T03:33:19.657Z,60.00
2023-04-09T03:35:52.584Z,60.36
2023-04-09T03:38:29.680Z,60.41
2023-04-09T03:40:59.225Z,60.42
2023-04-09T03:43:27.537Z,60.16
2023-04-09T03:45:54.988Z,60.06
2023-04-09T03:48:26.028Z,59.98
2023-04-09T03:50:53.983Z,59.98
2023-04-09T03:53:31.775Z,59.94
2023-04-09T03:56:04.045Z,59.76
2023-04-09T03:58:32.580Z,59.37
2023-04-09T04:01:01.466Z,59.22
2023-04-09T04:03:38.060Z,59.11
2023-04-09T04:06:21.263Z,59.29
2023-04-09T04:09:17.940Z,58.84
2023-04-09T04:11:51.495Z,58.42
2023-04-09T04:14:22.742Z,58.33
2023-04-09T04:16:56.674Z,57.79
2023-04-09T04:19:28.525Z,58.24
2023-04-09T04:21:56.786Z,58.28
2023-04-09T04:24:24.402Z,58.41
2023-04-09T04:26:51.802Z,58.61
2023-04-09T04:29:23.661Z,57.57
2023-04-09T04:31:56.713Z,56.94
2023-04-09T04:34:27.016Z,57.19
2023-04-09T04:37:01.927Z,57.44
2023-04-09T04:39:32.193Z,57.38
2023-04-09T04:42:04.185Z,57.43
2023-04-09T04:44:31.420Z,57.23
2023-04-09T04:47:27.865Z,57.14
2023-04-09T04:49:55.148Z,57.21
2023-04-09T04:52:22.734Z,56.83
2023-04-09T04:54:53.293Z,56.55
2023-04-09T04:57:23.474Z,56.09
2023-04-09T04:59:50.614Z,55.91
2023-04-09T05:02:18.599Z,55.80
2023-04-09T05:05:21.680Z,55.76
2023-04-09T05:07:53.467Z,55.93
2023-04-09T05:10:21.899Z,55.89
2023-04-09T05:12:49.855Z,55.22
2023-04-09T05:15:30.862Z,55.42
2023-04-09T05:17:58.390Z,55.10
2023-04-09T05:20:27.815Z,54.88
2023-04-09T05:23:10.766Z,54.62
2023-04-09T05:25:41.895Z,53.26
2023-04-09T05:28:19.470Z,53.50
2023-04-09T05:30:50.567Z,53.63
2023-04-09T05:33:18.907Z,53.53
2023-04-09T05:35:46.194Z,53.52
2023-04-09T05:38:14.154Z,53.57
2023-04-09T05:40:45.782Z,53.97
2023-04-09T05:43:13.940Z,54.06
2023-04-09T05:45:43.751Z,53.31
2023-04-09T05:48:11.294Z,52.59
2023-04-09T05:50:51.570Z,52.43
2023-04-09T05:53:24.193Z,51.76
2023-04-09T05:55:51.396Z,51.03
2023-04-09T05:58:21.859Z,50.33
2023-04-09T06:00:51.744Z,49.76
2023-04-09T06:03:19.589Z,49.25
2023-04-09T06:05:48.329Z,49.10
2023-04-09T06:08:15.766Z,48.46
2023-04-09T06:10:43.039Z,47.13
2023-04-09T06:13:10.758Z,47.42
2023-04-09T06:15:41.808Z,47.27
2023-04-09T06:18:09.087Z,47.38
2023-04-09T06:20:36.251Z,47.40
2023-04-09T06:23:03.557Z,47.43
2023-04-09T06:25:30.728Z,47.81
2023-04-09T06:27:57.788Z,48.89
2023-04-09T06:30:25.022Z,48.87
2023-04-09T06:32:54.980Z,48.94
2023-04-09T06:35:23.408Z,48.48
2023-04-09T06:37:50.503Z,48.36
2023-04-09T06:40:18.461Z,47.98
2023-04-09T06:42:46.749Z,47.51
2023-04-09T06:45:22.348Z,47.35
2023-04-09T06:47:50.018Z,47.09
2023-04-09T06:50:17.262Z,47.34
2023-04-09T06:52:44.297Z,46.91
2023-04-09T06:55:11.653Z,46.86
2023-04-09T06:57:43.952Z,46.47
2023-04-09T07:00:12.444Z,46.20
2023-04-09T07:02:40.197Z,46.23
2023-04-09T07:05:08.310Z,45.59
2023-04-09T07:07:41.698Z,46.11
2023-04-09T07:10:12.600Z,46.42
2023-04-09T07:12:40.466Z,45.96
2023-04-09T07:15:08.383Z,45.75
2023-04-09T07:17:36.157Z,45.71
2023-04-09T07:20:04.450Z,45.88
2023-04-09T07:22:50.215Z,46.14
2023-04-09T07:25:17.682Z,46.01
2023-04-09T07:27:44.864Z,45.63
2023-04-09T07:30:12.274Z,45.24
2023-04-09T07:32:58.867Z,45.18
2023-04-09T07:35:56.412Z,45.22
2023-04-09T07:38:23.793Z,45.29
2023-04-09T07:40:51.402Z,45.20
2023-04-09T07:43:19.791Z,45.09
2023-04-09T07:45:51.835Z,44.67
2023-04-09T07:48:18.976Z,44.39
2023-04-09T07:50:46.148Z,43.70
2023-04-09T07:53:13.339Z,43.46
2023-04-09T07:55:42.404Z,42.79
2023-04-09T07:58:09.663Z,42.61
2023-04-09T08:00:36.806Z,42.58
2023-04-09T08:03:04.460Z,42.00
2023-04-09T08:05:31.819Z,41.33
2023-04-09T08:08:05.909Z,41.29
2023-04-09T08:10:35.668Z,41.93
2023-04-09T08:13:03.112Z,42.60
2023-04-09T08:15:30.402Z,43.24
2023-04-09T08:17:57.760Z,43.29
2023-04-09T08:20:25.349Z,44.06
2023-04-09T08:22:52.611Z,44.24
2023-04-09T08:25:19.884Z,43.74
2023-04-09T08:27:47.070Z,43.01
2023-04-09T08:30:14.496Z,42.67
2023-04-09T08:32:42.258Z,42.37
2023-04-09T08:35:10.243Z,42.47
2023-04-09T08:37:37.280Z,42.29
2023-04-09T08:40:04.824Z,41.58
2023-04-09T08:42:34.518Z,41.02
2023-04-09T08:45:05.515Z,40.48
2023-04-09T08:47:35.286Z,40.72
2023-04-09T08:50:02.608Z,40.57
2023-04-09T08:52:36.327Z,40.73
2023-04-09T08:55:07.389Z,40.81
2023-04-09T08:57:41.588Z,41.06
2023-04-09T09:00:09.399Z,40.64
2023-04-09T09:02:37.090Z,40.78
2023-04-09T09:05:04.504Z,40.64
2023-04-09T09:07:32.301Z,40.01
2023-04-09T09:10:03.750Z,39.57
2023-04-09T09:12:40.454Z,39.25
2023-04-09T09:15:31.044Z,38.56
2023-04-09T09:18:00.905Z,38.57
2023-04-09T09:20:29.254Z,38.51
2023-04-09T09:22:57.057Z,38.78
2023-04-09T09:25:26.036Z,38.28
2023-04-09T09:27:54.576Z,38.29
2023-04-09T09:30:27.911Z,37.73
2023-04-09T09:33:10.679Z,37.13
2023-04-09T09:35:57.877Z,36.68
2023-04-09T09:38:25.133Z,36.46
2023-04-09T09:40:52.703Z,36.88
2023-04-09T09:43:19.968Z,37.18
2023-04-09T09:45:48.603Z,37.02
2023-04-09T09:48:16.160Z,36.95
2023-04-09T09:50:46.284Z,36.15
2023-04-09T09:53:14.900Z,35.04
2023-04-09T09:55:46.519Z,35.09
2023-04-09T09:58:22.236Z,35.17
2023-04-09T10:00:52.882Z,34.77
2023-04-09T10:03:32.212Z,34.28
2023-04-09T10:06:01.642Z,33.46
2023-04-09T10:08:30.289Z,33.42
2023-04-09T10:10:57.452Z,32.95
2023-04-09T10:13:46.307Z,33.03
2023-04-09T10:16:14.432Z,32.36
2023-04-09T10:18:43.719Z,32.16
2023-04-09T10:21:44.033Z,31.67
2023-04-09T10:24:11.703Z,31.78
2023-04-09T10:26:42.436Z,32.85
2023-04-09T10:29:13.978Z,32.57
2023-04-09T10:32:07.171Z,32.51
2023-04-09T10:34:43.894Z,32.43
2023-04-09T10:37:25.568Z,32.05
2023-04-09T10:39:54.080Z,31.94
2023-04-09T10:42:43.174Z,32.25
2023-04-09T10:45:14.111Z,32.30
2023-04-09T10:47:43.890Z,32.21
2023-04-09T10:50:28.106Z,32.74
2023-04-09T10:52:57.501Z,32.79
2023-04-09T10:55:41.297Z,33.17
2023-04-09T10:58:13.779Z,32.61
2023-04-09T11:00:46.572Z,31.99
2023-04-09T11:03:31.510Z,32.34
2023-04-09T11:06:10.239Z,32.72
2023-04-09T11:08:38.809Z,31.91
2023-04-09T11:11:06.521Z,32.23
2023-04-09T11:13:34.577Z,32.41
2023-04-09T11:16:06.773Z,31.99
2023-04-09T11:18:37.035Z,31.81
2023-04-09T11:21:04.583Z,31.57
2023-04-09T11:23:33.298Z,31.31
2023-04-09T11:26:01.824Z,30.94
2023-04-09T11:28:28.971Z,30.48
2023-04-09T11:30:55.993Z,30.41
2023-04-09T11:33:23.216Z,30.04
2023-04-09T11:35:51.544Z,30.01
2023-04-09T11:38:19.737Z,29.19
2023-04-09T11:40:51.335Z,28.61
2023-04-09T11:43:21.002Z,29.18
2023-04-09T11:45:48.958Z,28.57
2023-04-09T11:48:21.925Z,28.95
2023-04-09T11:50:49.196Z,29.15
2023-04-09T11:53:23.769Z,29.47
2023-04-09T11:55:58.361Z,29.28
2023-04-09T11:58:26.751Z,28.83
2023-04-09T12:01:00.114Z,28.71
2023-04-09T12:03:33.239Z,28.51
2023-04-09T12:06:04.463Z,28.68
2023-04-09T12:08:37.195Z,28.27
2023-04-09T12:11:16.159Z,27.54
2023-04-09T12:13:48.030Z,27.08
2023-04-09T12:16:20.889Z,26.63
2023-04-09T12:18:50.667Z,26.68
2023-04-09T12:21:19.359Z,26.80
2023-04-09T12:23:46.665Z,27.29
2023-04-09T12:26:16.689Z,27.04
2023-04-09T12:28:44.203Z,26.94
2023-04-09T12:31:12.149Z,27.07
2023-04-09T12:33:40.447Z,27.07
2023-04-09T12:36:13.424Z,27.05
2023-04-09T12:38:43.765Z,26.89
2023-04-09T12:41:13.706Z,26.38
2023-04-09T12:43:42.759Z,26.84
2023-04-09T12:46:14.302Z,26.49
2023-04-09T12:48:44.057Z,26.86
2023-04-09T12:51:19.477Z,27.44
2023-04-09T12:53:49.698Z,27.02
2023-04-09T12:56:16.860Z,27.34
2023-04-09T12:58:44.050Z,27.42
2023-04-09T13:01:13.475Z,27.39
2023-04-09T13:03:43.352Z,26.89
2023-04-09T13:06:10.482Z,25.62
2023-04-09T13:08:37.737Z,24.55
2023-04-09T13:11:05.237Z,22.85
2023-04-09T13:13:32.436Z,21.32
2023-04-09T13:15:59.755Z,20.08
2023-04-09T13:18:28.188Z,20.76
2023-04-09T13:20:55.547Z,20.25
2023-04-09T13:23:22.696Z,20.40
2023-04-09T13:25:49.885Z,21.25
2023-04-09T13:28:17.080Z,22.30
2023-04-09T13:30:44.486Z,23.48
2023-04-09T13:33:11.710Z,22.41
2023-04-09T13:35:38.869Z,22.26
2023-04-09T13:38:06.114Z,22.62
2023-04-09T13:40:33.443Z,21.72
2023-04-09T13:43:01.107Z,20.54
2023-04-09T13:45:28.394Z,19.35
2023-04-09T13:47:55.579Z,19.13
2023-04-09T13:50:22.739Z,19.09
2023-04-09T13:52:49.970Z,20.49
2023-04-09T13:55:17.256Z,20.38
2023-04-09T13:57:44.326Z,22.02
2023-04-09T14:00:12.003Z,22.39
2023-04-09T14:02:39.238Z,20.65
2023-04-09T14:05:07.007Z,20.66
2023-04-09T14:07:34.148Z,21.39
2023-04-09T14:10:01.393Z,22.33
2023-04-09T14:12:28.535Z,22.42
2023-04-09T14:14:58.139Z,22.18
2023-04-09T14:17:26.551Z,21.05
2023-04-09T14:19:53.762Z,21.21
2023-04-09T14:22:21.041Z,20.86
2023-04-09T14:24:48.084Z,20.27
2023-04-09T14:27:15.745Z,19.41
2023-04-09T14:29:43.170Z,18.43
2023-04-09T14:32:10.408Z,18.97
2023-04-09T14:34:37.445Z,18.68
2023-04-09T14:37:04.520Z,19.18
2023-04-09T14:39:31.849Z,18.70
2023-04-09T14:41:59.252Z,19.56
2023-04-09T14:44:27.388Z,20.47
2023-04-09T14:46:55.306Z,21.35
2023-04-09T14:49:28.529Z,21.89
2023-04-09T14:51:57.044Z,22.59
2023-04-09T14:54:25.848Z,22.85
2023-04-09T14:56:53.448Z,22.82
2023-04-09T14:59:20.901Z,22.59
2023-04-09T15:01:48.118Z,22.89
2023-04-09T15:04:15.756Z,22.62
2023-04-09T15:06:43.057Z,22.09
2023-04-09T15:09:10.358Z,21.92
2023-04-09T15:11:37.534Z,21.39
2023-04-09T15:14:04.892Z,20.29
2023-04-09T15:16:37.433Z,19.51
2023-04-09T15:19:04.722Z,18.84
2023-04-09T15:21:31.907Z,18.58
2023-04-09T15:23:59.159Z,18.50
2023-04-09T15:26:27.510Z,18.19
2023-04-09T15:29:08.445Z,18.06
2023-04-09T15:31:36.322Z,18.17
2023-04-09T15:34:03.615Z,18.09
2023-04-09T15:36:31.591Z,17.69
2023-04-09T15:38:58.860Z,17.20
2023-04-09T15:41:26.989Z,17.38
2023-04-09T15:43:54.107Z,17.29
2023-04-09T15:46:21.331Z,17.45
2023-04-09T15:48:48.611Z,17.67
2023-04-09T15:51:16.845Z,18.67
2023-04-09T15:53:44.061Z,18.25
2023-04-09T15:56:17.225Z,18.19
2023-04-09T15:58:44.570Z,18.09
2023-04-09T16:01:12.888Z,18.51
2023-04-09T16:03:41.304Z,19.62
2023-04-09T16:06:14.795Z,19.44
2023-04-09T16:08:45.172Z,19.26
2023-04-09T16:11:12.905Z,19.06
2023-04-09T16:13:40.203Z,19.17
2023-04-09T16:16:07.964Z,19.06
2023-04-09T16:18:35.623Z,18.83
2023-04-09T16:21:02.830Z,19.42
2023-04-09T16:23:30.825Z,19.12
2023-04-09T16:25:58.189Z,19.56
2023-04-09T16:28:26.638Z,20.18
2023-04-09T16:30:54.104Z,20.92
2023-04-09T16:33:21.258Z,22.26
2023-04-09T16:35:48.568Z,22.91
2023-04-09T16:38:15.946Z,24.32
2023-04-09T16:40:43.957Z,26.15
2023-04-09T16:43:11.674Z,27.29
2023-04-09T16:45:39.009Z,27.75
2023-04-09T16:48:11.620Z,28.25
2023-04-09T16:50:40.407Z,28.65
2023-04-09T16:53:08.598Z,29.00
2023-04-09T16:55:36.229Z,30.03
2023-04-09T16:58:03.458Z,30.81
2023-04-09T17:00:30.888Z,31.54
2023-04-09T17:02:58.115Z,31.97
2023-04-09T17:05:25.656Z,32.66
2023-04-09T17:07:53.673Z,32.78
2023-04-09T17:10:20.892Z,33.10
2023-04-09T17:12:48.597Z,33.59
2023-04-09T17:15:16.147Z,33.71
2023-04-09T17:17:44.758Z,33.85
2023-04-09T17:20:12.875Z,33.75
2023-04-09T17:22:40.178Z,34.39
2023-04-09T17:25:07.890Z,34.32
2023-04-09T17:27:34.976Z,34.38
2023-04-09T17:30:04.297Z,34.55
2023-04-09T17:32:31.580Z,35.09
2023-04-09T17:34:59.680Z,35.26
2023-04-09T17:37:29.836Z,35.28
2023-04-09T17:39:57.110Z,35.61
2023-04-09T17:42:24.647Z,35.57
2023-04-09T17:44:51.982Z,35.83
2023-04-09T17:47:19.219Z,36.16
2023-04-09T17:49:46.298Z,36.32
2023-04-09T17:52:14.752Z,36.46
2023-04-09T17:54:45.376Z,36.66
2023-04-09T17:57:12.732Z,36.84
2023-04-09T17:59:39.826Z,37.21
2023-04-09T18:02:07.457Z,37.06
2023-04-09T18:04:35.587Z,37.59
2023-04-09T18:07:03.937Z,37.72
2023-04-09T18:09:31.249Z,37.79
2023-04-09T18:12:00.161Z,39.07
2023-04-09T18:14:27.318Z,38.87
2023-04-09T18:16:54.458Z,39.60
2023-04-09T18:19:21.756Z,39.74
2023-04-09T18:21:48.977Z,40.15
2023-04-09T18:24:16.142Z,40.25
2023-04-09T18:26:43.226Z,40.66
2023-04-09T18:29:10.356Z,40.70
2023-04-09T18:31:37.495Z,40.85
2023-04-09T18:34:04.840Z,40.82
2023-04-09T18:36:31.914Z,40.67
2023-04-09T18:38:59.207Z,40.94
2023-04-09T18:41:27.164Z,40.94
2023-04-09T18:43:54.862Z,40.95
2023-04-09T18:46:23.011Z,41.25
2023-04-09T18:48:50.543Z,41.69
2023-04-09T18:51:19.627Z,41.79
2023-04-09T18:53:52.921Z,42.45
2023-04-09T18:56:21.146Z,42.75
2023-04-09T18:58:48.837Z,42.59
2023-04-09T19:01:17.502Z,42.86
2023-04-09T19:03:45.408Z,42.95
2023-04-09T19:06:15.189Z,43.18
2023-04-09T19:08:42.506Z,43.66
2023-04-09T19:11:09.816Z,44.31
2023-04-09T19:13:38.312Z,44.11
2023-04-09T19:16:09.729Z,44.32
2023-04-09T19:18:38.037Z,44.30
2023-04-09T19:21:08.733Z,44.73
2023-04-09T19:23:36.214Z,44.75
2023-04-09T19:26:05.570Z,44.96
2023-04-09T19:28:32.964Z,45.11
2023-04-09T19:31:02.835Z,45.13
2023-04-09T19:33:30.957Z,45.16
2023-04-09T19:36:01.524Z,45.18
2023-04-09T19:38:28.708Z,45.32
2023-04-09T19:40:55.904Z,45.09
2023-04-09T19:43:23.331Z,45.26
2023-04-09T19:45:50.737Z,45.76
2023-04-09T19:48:18.188Z,45.87
2023-04-09T19:50:46.208Z,45.69
2023-04-09T19:53:13.605Z,45.63
2023-04-09T19:55:41.471Z,45.98
2023-04-09T19:58:08.793Z,46.13
2023-04-09T20:00:36.147Z,46.44
2023-04-09T20:03:05.809Z,46.86
2023-04-09T20:05:33.460Z,47.09
2023-04-09T20:08:00.816Z,47.14
2023-04-09T20:10:28.131Z,47.24
2023-04-09T20:12:55.682Z,47.49
2023-04-09T20:15:23.048Z,47.82
2023-04-09T20:17:51.453Z,47.86
2023-04-09T20:20:20.099Z,47.66
2023-04-09T20:22:55.545Z,47.97
2023-04-09T20:25:24.872Z,48.03
2023-04-09T20:27:55.935Z,47.94
2023-04-09T20:30:23.198Z,47.87
2023-04-09T20:32:50.411Z,47.87
2023-04-09T20:35:17.662Z,47.66
2023-04-09T20:38:02.095Z,47.62
2023-04-09T20:40:30.831Z,47.38
2023-04-09T20:42:58.075Z,47.46
2023-04-09T20:45:25.325Z,47.77
2023-04-09T20:47:53.219Z,48.06
2023-04-09T20:50:20.521Z,48.06
2023-04-09T20:52:47.973Z,48.04
2023-04-09T20:55:18.048Z,48.24
2023-04-09T20:57:45.161Z,48.50
2023-04-09T21:00:13.114Z,48.69
2023-04-09T21:02:41.215Z,49.02
2023-04-09T21:05:21.753Z,49.08
2023-04-09T21:07:50.794Z,49.06
2023-04-09T21:10:18.225Z,49.11
2023-04-09T21:12:45.684Z,49.02
2023-04-09T21:15:12.836Z,48.94
2023-04-09T21:17:39.908Z,48.76
2023-04-09T21:20:08.702Z,48.85
2023-04-09T21:22:36.039Z,48.71
2023-04-09T21:25:03.618Z,48.70
2023-04-09T21:27:31.252Z,48.57
2023-04-09T21:29:58.802Z,48.62
2023-04-09T21:32:26.021Z,48.69
2023-04-09T21:34:53.422Z,48.74
2023-04-09T21:37:20.478Z,48.51
2023-04-09T21:39:48.840Z,48.28
2023-04-09T21:42:16.118Z,48.23
2023-04-09T21:44:43.166Z,48.49
2023-04-09T21:47:12.133Z,48.59
2023-04-09T21:49:40.699Z,48.68
2023-04-09T21:52:14.375Z,48.55
2023-04-09T21:54:43.493Z,48.71
2023-04-09T21:57:11.685Z,48.62
2023-04-09T21:59:41.067Z,48.67
2023-04-09T22:02:08.752Z,48.69
2023-04-09T22:04:36.169Z,48.71
2023-04-09T22:07:04.123Z,48.94
2023-04-09T22:09:31.606Z,49.11
2023-04-09T22:11:59.585Z,49.16
2023-04-09T22:14:29.381Z,49.13
2023-04-09T22:16:58.431Z,49.12
2023-04-09T22:19:26.598Z,49.50
2023-04-09T22:21:54.512Z,49.80
2023-04-09T22:24:29.907Z,50.08
2023-04-09T22:26:59.043Z,49.92
2023-04-09T22:29:27.765Z,49.88
2023-04-09T22:31:55.799Z,50.12
2023-04-09T22:34:23.018Z,50.12
2023-04-09T22:36:50.744Z,50.17
2023-04-09T22:39:18.025Z,50.52
2023-04-09T22:41:45.036Z,50.28
2023-04-09T22:44:12.190Z,50.38
2023-04-09T22:46:39.254Z,50.39
2023-04-09T22:49:06.638Z,50.21
2023-04-09T22:51:37.295Z,50.27
2023-04-09T22:54:05.775Z,50.43
2023-04-09T22:56:33.568Z,50.30
2023-04-09T22:59:00.860Z,50.57
2023-04-09T23:01:28.452Z,50.76
2023-04-09T23:03:55.996Z,51.00
2023-04-09T23:06:25.050Z,51.27
2023-04-09T23:08:52.312Z,50.82
2023-04-09T23:11:19.627Z,51.01
2023-04-09T23:13:46.694Z,51.13
2023-04-09T23:16:14.371Z,51.24
2023-04-09T23:18:41.524Z,51.28
2023-04-09T23:21:10.065Z,51.44
2023-04-09T23:23:39.009Z,51.48
2023-04-09T23:26:06.782Z,51.33
2023-04-09T23:28:33.975Z,52.06
2023-04-09T23:31:01.180Z,52.05
2023-04-09T23:33:28.471Z,52.18
2023-04-09T23:35:55.725Z,52.54
2023-04-09T23:38:22.931Z,52.67
2023-04-09T23:40:50.050Z,52.54
2023-04-09T23:43:17.429Z,52.36
2023-04-09T23:45:44.753Z,53.18
2023-04-09T23:48:12.656Z,53.29
2023-04-09T23:50:41.121Z,53.27
2023-04-09T23:53:08.866Z,53.42
2023-04-09T23:55:41.217Z,53.61
2023-04-09T23:58:09.545Z,53.39
